sensor_id;sensor_type;location;lat;lon;timestamp;P1;durP1;ratioP1;P2;durP2;ratioP2
13425;SDS011;6785;57.918;12.530;2023-05-24T00:01:46;116.80;;;16.00;;
13425;SDS011;6785;57.918;12.530;2023-05-24T00:04:13;84.27;;;13.03;;
13425;SDS011;6785;57.918;12.530;2023-05-24T00:06:40;32.80;;;12.10;;
13425;SDS011;6785;57.918;12.530;2023-05-24T00:09:08;39.10;;;12.67;;
13425;SDS011;6785;57.918;12.530;2023-05-24T00:11:36;110.23;;;14.67;;
13425;SDS011;6785;57.918;12.530;2023-05-24T00:14:04;127.87;;;16.07;;
13425;SDS011;6785;57.918;12.530;2023-05-24T00:16:32;100.33;;;13.47;;
13425;SDS011;6785;57.918;12.530;2023-05-24T00:18:59;79.30;;;10.87;;
13425;SDS011;6785;57.918;12.530;2023-05-24T00:21:26;44.50;;;11.53;;
13425;SDS011;6785;57.918;12.530;2023-05-24T00:23:53;31.83;;;10.13;;
13425;SDS011;6785;57.918;12.530;2023-05-24T00:26:19;47.27;;;11.70;;
13425;SDS011;6785;57.918;12.530;2023-05-24T00:28:46;23.93;;;9.83;;
13425;SDS011;6785;57.918;12.530;2023-05-24T00:31:13;53.10;;;12.50;;
13425;SDS011;6785;57.918;12.530;2023-05-24T00:33:41;43.50;;;12.50;;
13425;SDS011;6785;57.918;12.530;2023-05-24T00:36:08;51.83;;;12.30;;
13425;SDS011;6785;57.918;12.530;2023-05-24T00:38:34;54.83;;;13.03;;
13425;SDS011;6785;57.918;12.530;2023-05-24T00:41:01;123.53;;;17.33;;
13425;SDS011;6785;57.918;12.530;2023-05-24T00:43:28;137.57;;;16.80;;
13425;SDS011;6785;57.918;12.530;2023-05-24T00:46:00;97.43;;;13.13;;
13425;SDS011;6785;57.918;12.530;2023-05-24T00:48:41;134.13;;;15.33;;
13425;SDS011;6785;57.918;12.530;2023-05-24T00:51:08;61.93;;;15.10;;
13425;SDS011;6785;57.918;12.530;2023-05-24T00:53:36;45.53;;;11.93;;
13425;SDS011;6785;57.918;12.530;2023-05-24T00:56:05;32.03;;;9.60;;
13425;SDS011;6785;57.918;12.530;2023-05-24T00:58:32;16.93;;;10.07;;
13425;SDS011;6785;57.918;12.530;2023-05-24T01:00:59;12.87;;;9.77;;
13425;SDS011;6785;57.918;12.530;2023-05-24T01:03:27;18.57;;;9.40;;
13425;SDS011;6785;57.918;12.530;2023-05-24T01:05:56;21.33;;;10.40;;
13425;SDS011;6785;57.918;12.530;2023-05-24T01:08:30;21.73;;;10.33;;
13425;SDS011;6785;57.918;12.530;2023-05-24T01:11:16;11.13;;;9.97;;
13425;SDS011;6785;57.918;12.530;2023-05-24T01:13:51;14.80;;;10.00;;
13425;SDS011;6785;57.918;12.530;2023-05-24T01:16:24;28.30;;;12.43;;
13425;SDS011;6785;57.918;12.530;2023-05-24T01:19:15;41.30;;;11.43;;
13425;SDS011;6785;57.918;12.530;2023-05-24T01:22:11;25.90;;;10.70;;
13425;SDS011;6785;57.918;12.530;2023-05-24T01:24:49;22.87;;;10.70;;
13425;SDS011;6785;57.918;12.530;2023-05-24T01:27:25;19.73;;;9.47;;
13425;SDS011;6785;57.918;12.530;2023-05-24T01:29:53;28.80;;;9.10;;
13425;SDS011;6785;57.918;12.530;2023-05-24T01:32:21;26.73;;;9.20;;
13425;SDS011;6785;57.918;12.530;2023-05-24T01:34:48;18.73;;;8.27;;
13425;SDS011;6785;57.918;12.530;2023-05-24T01:37:14;20.23;;;8.53;;
13425;SDS011;6785;57.918;12.530;2023-05-24T01:39:41;28.80;;;9.57;;
13425;SDS011;6785;57.918;12.530;2023-05-24T01:42:10;30.80;;;10.53;;
13425;SDS011;6785;57.918;12.530;2023-05-24T01:44:46;33.30;;;11.10;;
13425;SDS011;6785;57.918;12.530;2023-05-24T01:47:24;20.03;;;9.03;;
13425;SDS011;6785;57.918;12.530;2023-05-24T01:50:01;23.97;;;9.53;;
13425;SDS011;6785;57.918;12.530;2023-05-24T01:52:32;15.67;;;9.27;;
13425;SDS011;6785;57.918;12.530;2023-05-24T01:55:01;27.17;;;9.27;;
13425;SDS011;6785;57.918;12.530;2023-05-24T01:57:30;21.00;;;9.20;;
13425;SDS011;6785;57.918;12.530;2023-05-24T02:00:00;23.80;;;9.93;;
13425;SDS011;6785;57.918;12.530;2023-05-24T02:02:29;14.23;;;9.13;;
13425;SDS011;6785;57.918;12.530;2023-05-24T02:04:56;15.03;;;9.57;;
13425;SDS011;6785;57.918;12.530;2023-05-24T02:07:22;17.27;;;8.77;;
13425;SDS011;6785;57.918;12.530;2023-05-24T02:09:49;16.93;;;8.97;;
13425;SDS011;6785;57.918;12.530;2023-05-24T02:12:16;14.87;;;9.87;;
13425;SDS011;6785;57.918;12.530;2023-05-24T02:14:43;18.67;;;9.93;;
13425;SDS011;6785;57.918;12.530;2023-05-24T02:17:11;33.00;;;9.60;;
13425;SDS011;6785;57.918;12.530;2023-05-24T02:19:38;43.87;;;11.30;;
13425;SDS011;6785;57.918;12.530;2023-05-24T02:22:05;90.10;;;13.27;;
13425;SDS011;6785;57.918;12.530;2023-05-24T02:24:32;36.23;;;9.90;;
13425;SDS011;6785;57.918;12.530;2023-05-24T02:26:58;80.70;;;13.60;;
13425;SDS011;6785;57.918;12.530;2023-05-24T02:29:26;38.17;;;10.90;;
13425;SDS011;6785;57.918;12.530;2023-05-24T02:31:53;25.30;;;10.43;;
13425;SDS011;6785;57.918;12.530;2023-05-24T02:34:22;27.57;;;11.13;;
13425;SDS011;6785;57.918;12.530;2023-05-24T02:36:49;45.57;;;11.70;;
13425;SDS011;6785;57.918;12.530;2023-05-24T02:39:18;59.73;;;11.60;;
13425;SDS011;6785;57.918;12.530;2023-05-24T02:41:45;19.17;;;10.90;;
13425;SDS011;6785;57.918;12.530;2023-05-24T02:44:12;23.57;;;10.43;;
13425;SDS011;6785;57.918;12.530;2023-05-24T02:46:38;31.50;;;11.07;;
13425;SDS011;6785;57.918;12.530;2023-05-24T02:49:05;73.50;;;12.77;;
13425;SDS011;6785;57.918;12.530;2023-05-24T02:51:33;17.83;;;10.43;;
13425;SDS011;6785;57.918;12.530;2023-05-24T02:54:01;67.83;;;13.37;;
13425;SDS011;6785;57.918;12.530;2023-05-24T02:56:27;13.67;;;9.03;;
13425;SDS011;6785;57.918;12.530;2023-05-24T02:58:54;32.83;;;12.03;;
13425;SDS011;6785;57.918;12.530;2023-05-24T03:01:22;50.67;;;11.67;;
13425;SDS011;6785;57.918;12.530;2023-05-24T03:03:48;43.27;;;11.00;;
13425;SDS011;6785;57.918;12.530;2023-05-24T03:06:15;28.13;;;9.80;;
13425;SDS011;6785;57.918;12.530;2023-05-24T03:08:43;21.87;;;8.67;;
13425;SDS011;6785;57.918;12.530;2023-05-24T03:11:10;29.83;;;9.30;;
13425;SDS011;6785;57.918;12.530;2023-05-24T03:13:36;29.83;;;9.67;;
13425;SDS011;6785;57.918;12.530;2023-05-24T03:16:04;25.40;;;10.30;;
13425;SDS011;6785;57.918;12.530;2023-05-24T03:18:31;60.67;;;11.97;;
13425;SDS011;6785;57.918;12.530;2023-05-24T03:20:58;176.97;;;16.17;;
13425;SDS011;6785;57.918;12.530;2023-05-24T03:23:24;119.70;;;14.90;;
13425;SDS011;6785;57.918;12.530;2023-05-24T03:25:52;76.73;;;13.23;;
13425;SDS011;6785;57.918;12.530;2023-05-24T03:28:19;44.53;;;10.17;;
13425;SDS011;6785;57.918;12.530;2023-05-24T03:30:46;117.03;;;14.07;;
13425;SDS011;6785;57.918;12.530;2023-05-24T03:33:13;27.43;;;9.57;;
13425;SDS011;6785;57.918;12.530;2023-05-24T03:35:39;20.50;;;7.97;;
13425;SDS011;6785;57.918;12.530;2023-05-24T03:38:06;20.37;;;8.40;;
13425;SDS011;6785;57.918;12.530;2023-05-24T03:40:33;84.03;;;11.27;;
13425;SDS011;6785;57.918;12.530;2023-05-24T03:43:02;291.87;;;21.10;;
13425;SDS011;6785;57.918;12.530;2023-05-24T03:45:28;46.70;;;9.00;;
13425;SDS011;6785;57.918;12.530;2023-05-24T03:47:55;18.57;;;7.50;;
13425;SDS011;6785;57.918;12.530;2023-05-24T03:50:22;144.30;;;14.43;;
13425;SDS011;6785;57.918;12.530;2023-05-24T03:52:49;84.90;;;11.30;;
13425;SDS011;6785;57.918;12.530;2023-05-24T03:55:16;185.47;;;19.77;;
13425;SDS011;6785;57.918;12.530;2023-05-24T03:57:43;155.30;;;14.33;;
13425;SDS011;6785;57.918;12.530;2023-05-24T04:00:11;66.67;;;10.87;;
13425;SDS011;6785;57.918;12.530;2023-05-24T04:02:39;31.77;;;8.40;;
13425;SDS011;6785;57.918;12.530;2023-05-24T04:05:06;50.87;;;9.67;;
13425;SDS011;6785;57.918;12.530;2023-05-24T04:07:34;60.30;;;11.37;;
13425;SDS011;6785;57.918;12.530;2023-05-24T04:10:01;164.20;;;16.07;;
13425;SDS011;6785;57.918;12.530;2023-05-24T04:12:28;159.27;;;16.07;;
13425;SDS011;6785;57.918;12.530;2023-05-24T04:14:56;37.77;;;8.60;;
13425;SDS011;6785;57.918;12.530;2023-05-24T04:17:24;58.37;;;9.20;;
13425;SDS011;6785;57.918;12.530;2023-05-24T04:19:51;36.73;;;8.40;;
13425;SDS011;6785;57.918;12.530;2023-05-24T04:22:18;322.47;;;23.27;;
13425;SDS011;6785;57.918;12.530;2023-05-24T04:24:44;76.17;;;11.40;;
13425;SDS011;6785;57.918;12.530;2023-05-24T04:27:11;44.70;;;10.23;;
13425;SDS011;6785;57.918;12.530;2023-05-24T04:29:38;107.07;;;13.50;;
13425;SDS011;6785;57.918;12.530;2023-05-24T04:32:05;233.10;;;20.63;;
13425;SDS011;6785;57.918;12.530;2023-05-24T04:34:35;23.53;;;7.87;;
13425;SDS011;6785;57.918;12.530;2023-05-24T04:37:06;7.90;;;6.63;;
13425;SDS011;6785;57.918;12.530;2023-05-24T04:39:33;7.63;;;6.93;;
13425;SDS011;6785;57.918;12.530;2023-05-24T04:42:00;7.40;;;6.70;;
13425;SDS011;6785;57.918;12.530;2023-05-24T04:44:26;6.70;;;6.13;;
13425;SDS011;6785;57.918;12.530;2023-05-24T04:46:53;8.53;;;6.30;;
13425;SDS011;6785;57.918;12.530;2023-05-24T04:49:20;7.07;;;6.33;;
13425;SDS011;6785;57.918;12.530;2023-05-24T04:51:48;15.27;;;6.70;;
13425;SDS011;6785;57.918;12.530;2023-05-24T04:54:14;18.83;;;8.70;;
13425;SDS011;6785;57.918;12.530;2023-05-24T04:56:42;21.20;;;7.40;;
13425;SDS011;6785;57.918;12.530;2023-05-24T04:59:08;9.27;;;6.70;;
13425;SDS011;6785;57.918;12.530;2023-05-24T05:01:35;19.20;;;7.07;;
13425;SDS011;6785;57.918;12.530;2023-05-24T05:04:02;19.63;;;7.30;;
13425;SDS011;6785;57.918;12.530;2023-05-24T05:06:29;27.17;;;8.57;;
13425;SDS011;6785;57.918;12.530;2023-05-24T05:08:59;22.70;;;7.30;;
13425;SDS011;6785;57.918;12.530;2023-05-24T05:11:26;12.00;;;7.40;;
13425;SDS011;6785;57.918;12.530;2023-05-24T05:13:52;8.30;;;7.50;;
13425;SDS011;6785;57.918;12.530;2023-05-24T05:16:19;8.07;;;7.37;;
13425;SDS011;6785;57.918;12.530;2023-05-24T05:18:46;8.43;;;7.63;;
13425;SDS011;6785;57.918;12.530;2023-05-24T05:21:12;8.13;;;7.40;;
13425;SDS011;6785;57.918;12.530;2023-05-24T05:23:39;8.47;;;7.67;;
13425;SDS011;6785;57.918;12.530;2023-05-24T05:26:08;8.80;;;8.00;;
13425;SDS011;6785;57.918;12.530;2023-05-24T05:28:35;9.63;;;8.63;;
13425;SDS011;6785;57.918;12.530;2023-05-24T05:31:02;8.80;;;7.93;;
13425;SDS011;6785;57.918;12.530;2023-05-24T05:33:29;8.93;;;8.13;;
13425;SDS011;6785;57.918;12.530;2023-05-24T05:35:56;10.77;;;8.70;;
13425;SDS011;6785;57.918;12.530;2023-05-24T05:38:23;12.13;;;9.73;;
13425;SDS011;6785;57.918;12.530;2023-05-24T05:40:51;10.60;;;9.30;;
13425;SDS011;6785;57.918;12.530;2023-05-24T05:43:19;11.63;;;9.33;;
13425;SDS011;6785;57.918;12.530;2023-05-24T05:45:46;9.47;;;8.60;;
13425;SDS011;6785;57.918;12.530;2023-05-24T05:48:12;8.67;;;7.87;;
13425;SDS011;6785;57.918;12.530;2023-05-24T05:50:39;9.70;;;8.37;;
13425;SDS011;6785;57.918;12.530;2023-05-24T05:53:06;9.37;;;8.47;;
13425;SDS011;6785;57.918;12.530;2023-05-24T05:55:32;10.20;;;8.80;;
13425;SDS011;6785;57.918;12.530;2023-05-24T05:58:00;9.03;;;8.20;;
13425;SDS011;6785;57.918;12.530;2023-05-24T06:00:28;9.10;;;8.20;;
13425;SDS011;6785;57.918;12.530;2023-05-24T06:02:54;9.30;;;8.40;;
13425;SDS011;6785;57.918;12.530;2023-05-24T06:05:21;9.33;;;8.43;;
13425;SDS011;6785;57.918;12.530;2023-05-24T06:07:48;9.63;;;8.27;;
13425;SDS011;6785;57.918;12.530;2023-05-24T06:10:14;8.57;;;7.67;;
13425;SDS011;6785;57.918;12.530;2023-05-24T06:12:41;8.60;;;7.40;;
13425;SDS011;6785;57.918;12.530;2023-05-24T06:15:08;9.63;;;7.97;;
13425;SDS011;6785;57.918;12.530;2023-05-24T06:17:37;9.37;;;7.77;;
13425;SDS011;6785;57.918;12.530;2023-05-24T06:20:06;8.73;;;7.63;;
13425;SDS011;6785;57.918;12.530;2023-05-24T06:22:35;8.07;;;7.23;;
13425;SDS011;6785;57.918;12.530;2023-05-24T06:25:02;8.37;;;7.60;;
13425;SDS011;6785;57.918;12.530;2023-05-24T06:27:30;9.80;;;7.17;;
13425;SDS011;6785;57.918;12.530;2023-05-24T06:29:57;9.23;;;7.80;;
13425;SDS011;6785;57.918;12.530;2023-05-24T06:32:23;9.63;;;7.33;;
13425;SDS011;6785;57.918;12.530;2023-05-24T06:34:51;7.30;;;6.57;;
13425;SDS011;6785;57.918;12.530;2023-05-24T06:37:18;7.93;;;6.37;;
13425;SDS011;6785;57.918;12.530;2023-05-24T06:39:49;7.80;;;7.10;;
13425;SDS011;6785;57.918;12.530;2023-05-24T06:42:16;9.27;;;6.77;;
13425;SDS011;6785;57.918;12.530;2023-05-24T06:44:43;8.57;;;6.80;;
13425;SDS011;6785;57.918;12.530;2023-05-24T06:47:09;7.33;;;6.63;;
13425;SDS011;6785;57.918;12.530;2023-05-24T06:49:36;7.07;;;6.37;;
13425;SDS011;6785;57.918;12.530;2023-05-24T06:52:04;7.50;;;6.30;;
13425;SDS011;6785;57.918;12.530;2023-05-24T06:54:32;6.97;;;6.27;;
13425;SDS011;6785;57.918;12.530;2023-05-24T06:56:59;7.13;;;6.43;;
13425;SDS011;6785;57.918;12.530;2023-05-24T06:59:25;7.63;;;6.10;;
13425;SDS011;6785;57.918;12.530;2023-05-24T07:01:52;7.43;;;6.20;;
13425;SDS011;6785;57.918;12.530;2023-05-24T07:04:21;7.20;;;6.23;;
13425;SDS011;6785;57.918;12.530;2023-05-24T07:06:48;6.60;;;6.00;;
13425;SDS011;6785;57.918;12.530;2023-05-24T07:09:17;6.27;;;5.67;;
13425;SDS011;6785;57.918;12.530;2023-05-24T07:11:44;8.63;;;6.13;;
13425;SDS011;6785;57.918;12.530;2023-05-24T07:14:10;6.93;;;6.17;;
13425;SDS011;6785;57.918;12.530;2023-05-24T07:16:37;7.43;;;6.47;;
13425;SDS011;6785;57.918;12.530;2023-05-24T07:19:04;9.40;;;5.70;;
13425;SDS011;6785;57.918;12.530;2023-05-24T07:21:31;13.80;;;6.60;;
13425;SDS011;6785;57.918;12.530;2023-05-24T07:23:58;7.07;;;6.00;;
13425;SDS011;6785;57.918;12.530;2023-05-24T07:26:26;7.50;;;5.90;;
13425;SDS011;6785;57.918;12.530;2023-05-24T07:28:53;6.87;;;5.93;;
13425;SDS011;6785;57.918;12.530;2023-05-24T07:31:20;6.43;;;5.80;;
13425;SDS011;6785;57.918;12.530;2023-05-24T07:33:47;6.50;;;5.77;;
13425;SDS011;6785;57.918;12.530;2023-05-24T07:36:13;8.43;;;5.63;;
13425;SDS011;6785;57.918;12.530;2023-05-24T07:38:40;6.30;;;5.70;;
13425;SDS011;6785;57.918;12.530;2023-05-24T07:41:07;6.20;;;5.60;;
13425;SDS011;6785;57.918;12.530;2023-05-24T07:43:35;7.10;;;5.67;;
13425;SDS011;6785;57.918;12.530;2023-05-24T07:46:02;6.30;;;5.70;;
13425;SDS011;6785;57.918;12.530;2023-05-24T07:48:29;11.10;;;5.87;;
13425;SDS011;6785;57.918;12.530;2023-05-24T07:50:56;6.23;;;5.47;;
13425;SDS011;6785;57.918;12.530;2023-05-24T07:53:22;6.63;;;5.30;;
13425;SDS011;6785;57.918;12.530;2023-05-24T07:55:49;5.50;;;5.00;;
13425;SDS011;6785;57.918;12.530;2023-05-24T07:58:16;5.53;;;5.03;;
13425;SDS011;6785;57.918;12.530;2023-05-24T08:00:44;6.00;;;5.50;;
13425;SDS011;6785;57.918;12.530;2023-05-24T08:03:11;5.23;;;4.73;;
13425;SDS011;6785;57.918;12.530;2023-05-24T08:05:39;5.50;;;5.00;;
13425;SDS011;6785;57.918;12.530;2023-05-24T08:08:06;6.73;;;5.13;;
13425;SDS011;6785;57.918;12.530;2023-05-24T08:10:33;5.47;;;5.00;;
13425;SDS011;6785;57.918;12.530;2023-05-24T08:13:00;6.60;;;5.30;;
13425;SDS011;6785;57.918;12.530;2023-05-24T08:15:27;6.17;;;5.00;;
13425;SDS011;6785;57.918;12.530;2023-05-24T08:17:55;6.47;;;5.77;;
13425;SDS011;6785;57.918;12.530;2023-05-24T08:20:22;6.70;;;5.40;;
13425;SDS011;6785;57.918;12.530;2023-05-24T08:22:49;6.40;;;5.20;;
13425;SDS011;6785;57.918;12.530;2023-05-24T08:25:15;7.93;;;6.10;;
13425;SDS011;6785;57.918;12.530;2023-05-24T08:27:42;6.23;;;5.63;;
13425;SDS011;6785;57.918;12.530;2023-05-24T08:30:09;7.83;;;5.00;;
13425;SDS011;6785;57.918;12.530;2023-05-24T08:32:37;6.00;;;5.37;;
13425;SDS011;6785;57.918;12.530;2023-05-24T08:35:05;6.17;;;5.57;;
13425;SDS011;6785;57.918;12.530;2023-05-24T08:37:32;5.50;;;5.00;;
13425;SDS011;6785;57.918;12.530;2023-05-24T08:39:59;5.30;;;4.77;;
13425;SDS011;6785;57.918;12.530;2023-05-24T08:42:28;6.33;;;4.90;;
13425;SDS011;6785;57.918;12.530;2023-05-24T08:44:57;7.93;;;5.40;;
13425;SDS011;6785;57.918;12.530;2023-05-24T08:47:28;5.47;;;4.50;;
13425;SDS011;6785;57.918;12.530;2023-05-24T08:49:56;6.73;;;5.20;;
13425;SDS011;6785;57.918;12.530;2023-05-24T08:52:24;7.37;;;4.93;;
13425;SDS011;6785;57.918;12.530;2023-05-24T08:54:53;6.97;;;4.50;;
13425;SDS011;6785;57.918;12.530;2023-05-24T08:57:20;4.73;;;4.23;;
13425;SDS011;6785;57.918;12.530;2023-05-24T08:59:47;4.40;;;4.00;;
13425;SDS011;6785;57.918;12.530;2023-05-24T09:02:14;9.70;;;4.70;;
13425;SDS011;6785;57.918;12.530;2023-05-24T09:04:42;5.03;;;4.57;;
13425;SDS011;6785;57.918;12.530;2023-05-24T09:07:12;6.00;;;4.57;;
13425;SDS011;6785;57.918;12.530;2023-05-24T09:09:41;6.23;;;4.70;;
13425;SDS011;6785;57.918;12.530;2023-05-24T09:12:13;7.20;;;4.63;;
13425;SDS011;6785;57.918;12.530;2023-05-24T09:14:43;5.50;;;5.00;;
13425;SDS011;6785;57.918;12.530;2023-05-24T09:17:11;6.87;;;5.37;;
13425;SDS011;6785;57.918;12.530;2023-05-24T09:19:39;4.73;;;4.17;;
13425;SDS011;6785;57.918;12.530;2023-05-24T09:22:09;4.57;;;4.10;;
13425;SDS011;6785;57.918;12.530;2023-05-24T09:24:42;7.93;;;4.43;;
13425;SDS011;6785;57.918;12.530;2023-05-24T09:27:13;6.17;;;5.57;;
13425;SDS011;6785;57.918;12.530;2023-05-24T09:29:41;6.37;;;5.23;;
13425;SDS011;6785;57.918;12.530;2023-05-24T09:32:10;6.40;;;5.80;;
13425;SDS011;6785;57.918;12.530;2023-05-24T09:34:38;7.77;;;6.23;;
13425;SDS011;6785;57.918;12.530;2023-05-24T09:37:05;6.07;;;5.43;;
13425;SDS011;6785;57.918;12.530;2023-05-24T09:39:34;7.00;;;5.57;;
13425;SDS011;6785;57.918;12.530;2023-05-24T09:42:02;7.00;;;6.10;;
13425;SDS011;6785;57.918;12.530;2023-05-24T09:44:29;7.00;;;5.97;;
13425;SDS011;6785;57.918;12.530;2023-05-24T09:47:00;6.03;;;5.37;;
13425;SDS011;6785;57.918;12.530;2023-05-24T09:49:29;6.40;;;5.63;;
13425;SDS011;6785;57.918;12.530;2023-05-24T09:51:55;7.30;;;6.10;;
13425;SDS011;6785;57.918;12.530;2023-05-24T09:54:24;6.10;;;5.50;;
13425;SDS011;6785;57.918;12.530;2023-05-24T09:56:51;6.37;;;5.70;;
13425;SDS011;6785;57.918;12.530;2023-05-24T09:59:19;6.50;;;5.40;;
13425;SDS011;6785;57.918;12.530;2023-05-24T10:01:46;5.67;;;5.17;;
13425;SDS011;6785;57.918;12.530;2023-05-24T10:04:17;7.03;;;5.07;;
13425;SDS011;6785;57.918;12.530;2023-05-24T10:06:44;5.50;;;5.00;;
13425;SDS011;6785;57.918;12.530;2023-05-24T10:09:12;6.20;;;5.40;;
13425;SDS011;6785;57.918;12.530;2023-05-24T10:11:40;5.90;;;4.57;;
13425;SDS011;6785;57.918;12.530;2023-05-24T10:14:08;5.80;;;4.80;;
13425;SDS011;6785;57.918;12.530;2023-05-24T10:16:36;5.77;;;5.10;;
13425;SDS011;6785;57.918;12.530;2023-05-24T10:19:03;5.30;;;4.80;;
13425;SDS011;6785;57.918;12.530;2023-05-24T10:21:31;5.33;;;4.77;;
13425;SDS011;6785;57.918;12.530;2023-05-24T10:24:01;7.27;;;4.67;;
13425;SDS011;6785;57.918;12.530;2023-05-24T10:26:31;6.37;;;4.53;;
13425;SDS011;6785;57.918;12.530;2023-05-24T10:29:00;4.97;;;4.47;;
13425;SDS011;6785;57.918;12.530;2023-05-24T10:31:32;4.40;;;4.00;;
13425;SDS011;6785;57.918;12.530;2023-05-24T10:34:02;9.27;;;5.10;;
13425;SDS011;6785;57.918;12.530;2023-05-24T10:36:32;4.67;;;4.10;;
13425;SDS011;6785;57.918;12.530;2023-05-24T10:38:59;7.60;;;4.37;;
13425;SDS011;6785;57.918;12.530;2023-05-24T10:41:27;4.93;;;4.37;;
13425;SDS011;6785;57.918;12.530;2023-05-24T10:43:54;8.37;;;4.63;;
13425;SDS011;6785;57.918;12.530;2023-05-24T10:46:22;6.57;;;4.90;;
13425;SDS011;6785;57.918;12.530;2023-05-24T10:48:59;5.77;;;5.20;;
13425;SDS011;6785;57.918;12.530;2023-05-24T10:51:29;5.50;;;5.00;;
13425;SDS011;6785;57.918;12.530;2023-05-24T10:54:05;6.20;;;5.17;;
13425;SDS011;6785;57.918;12.530;2023-05-24T10:56:38;5.63;;;4.63;;
13425;SDS011;6785;57.918;12.530;2023-05-24T10:59:06;7.00;;;5.20;;
13425;SDS011;6785;57.918;12.530;2023-05-24T11:01:33;5.70;;;5.20;;
13425;SDS011;6785;57.918;12.530;2023-05-24T11:04:07;5.40;;;4.83;;
13425;SDS011;6785;57.918;12.530;2023-05-24T11:06:46;5.70;;;4.83;;
13425;SDS011;6785;57.918;12.530;2023-05-24T11:09:14;5.00;;;4.50;;
13425;SDS011;6785;57.918;12.530;2023-05-24T11:11:44;5.57;;;5.07;;
13425;SDS011;6785;57.918;12.530;2023-05-24T11:14:13;5.73;;;4.77;;
13425;SDS011;6785;57.918;12.530;2023-05-24T11:16:43;5.27;;;4.77;;
13425;SDS011;6785;57.918;12.530;2023-05-24T11:19:13;5.27;;;4.77;;
13425;SDS011;6785;57.918;12.530;2023-05-24T11:21:42;4.83;;;4.13;;
13425;SDS011;6785;57.918;12.530;2023-05-24T11:24:11;4.73;;;4.30;;
13425;SDS011;6785;57.918;12.530;2023-05-24T11:26:38;8.33;;;4.30;;
13425;SDS011;6785;57.918;12.530;2023-05-24T11:29:06;6.50;;;4.23;;
13425;SDS011;6785;57.918;12.530;2023-05-24T11:31:33;7.27;;;4.47;;
13425;SDS011;6785;57.918;12.530;2023-05-24T11:34:03;5.20;;;4.50;;
13425;SDS011;6785;57.918;12.530;2023-05-24T11:36:31;6.10;;;4.13;;
13425;SDS011;6785;57.918;12.530;2023-05-24T11:39:00;7.53;;;4.67;;
13425;SDS011;6785;57.918;12.530;2023-05-24T11:41:34;6.00;;;4.60;;
13425;SDS011;6785;57.918;12.530;2023-05-24T11:44:02;6.90;;;4.40;;
13425;SDS011;6785;57.918;12.530;2023-05-24T11:46:29;5.30;;;4.80;;
13425;SDS011;6785;57.918;12.530;2023-05-24T11:48:57;5.87;;;4.40;;
13425;SDS011;6785;57.918;12.530;2023-05-24T11:51:24;6.00;;;4.60;;
13425;SDS011;6785;57.918;12.530;2023-05-24T11:53:52;4.87;;;4.37;;
13425;SDS011;6785;57.918;12.530;2023-05-24T11:56:20;9.13;;;4.80;;
13425;SDS011;6785;57.918;12.530;2023-05-24T11:58:48;5.27;;;4.70;;
13425;SDS011;6785;57.918;12.530;2023-05-24T12:01:22;6.97;;;5.00;;
13425;SDS011;6785;57.918;12.530;2023-05-24T12:03:50;10.57;;;5.10;;
13425;SDS011;6785;57.918;12.530;2023-05-24T12:06:18;6.17;;;4.47;;
13425;SDS011;6785;57.918;12.530;2023-05-24T12:08:45;6.60;;;4.80;;
13425;SDS011;6785;57.918;12.530;2023-05-24T12:11:12;7.20;;;5.10;;
13425;SDS011;6785;57.918;12.530;2023-05-24T12:13:40;5.30;;;4.80;;
13425;SDS011;6785;57.918;12.530;2023-05-24T12:16:09;6.70;;;4.73;;
13425;SDS011;6785;57.918;12.530;2023-05-24T12:18:38;5.85;;;4.88;;
13425;SDS011;6785;57.918;12.530;2023-05-24T12:21:07;5.50;;;5.00;;
13425;SDS011;6785;57.918;12.530;2023-05-24T12:23:35;6.50;;;5.07;;
13425;SDS011;6785;57.918;12.530;2023-05-24T12:26:03;7.05;;;4.68;;
13425;SDS011;6785;57.918;12.530;2023-05-24T12:28:33;5.72;;;4.55;;
13425;SDS011;6785;57.918;12.530;2023-05-24T12:31:03;6.13;;;4.55;;
13425;SDS011;6785;57.918;12.530;2023-05-24T12:33:31;5.03;;;4.53;;
13425;SDS011;6785;57.918;12.530;2023-05-24T12:35:59;6.57;;;4.45;;
13425;SDS011;6785;57.918;12.530;2023-05-24T12:38:26;4.82;;;4.35;;
13425;SDS011;6785;57.918;12.530;2023-05-24T12:40:53;5.25;;;4.50;;
13425;SDS011;6785;57.918;12.530;2023-05-24T12:43:20;8.80;;;5.15;;
13425;SDS011;6785;57.918;12.530;2023-05-24T12:45:47;8.13;;;5.10;;
13425;SDS011;6785;57.918;12.530;2023-05-24T12:48:14;7.20;;;5.07;;
13425;SDS011;6785;57.918;12.530;2023-05-24T12:50:43;6.25;;;4.95;;
13425;SDS011;6785;57.918;12.530;2023-05-24T12:53:09;6.00;;;5.05;;
13425;SDS011;6785;57.918;12.530;2023-05-24T12:55:36;6.20;;;5.30;;
13425;SDS011;6785;57.918;12.530;2023-05-24T12:58:05;8.65;;;5.20;;
13425;SDS011;6785;57.918;12.530;2023-05-24T13:00:33;7.22;;;4.97;;
13425;SDS011;6785;57.918;12.530;2023-05-24T13:03:00;6.57;;;4.88;;
13425;SDS011;6785;57.918;12.530;2023-05-24T13:05:27;6.75;;;5.07;;
13425;SDS011;6785;57.918;12.530;2023-05-24T13:07:56;6.72;;;4.82;;
13425;SDS011;6785;57.918;12.530;2023-05-24T13:10:23;7.40;;;4.75;;
13425;SDS011;6785;57.918;12.530;2023-05-24T13:12:51;5.15;;;4.10;;
13425;SDS011;6785;57.918;12.530;2023-05-24T13:15:18;5.15;;;4.55;;
13425;SDS011;6785;57.918;12.530;2023-05-24T13:17:47;5.00;;;4.15;;
13425;SDS011;6785;57.918;12.530;2023-05-24T13:20:13;4.72;;;4.10;;
13425;SDS011;6785;57.918;12.530;2023-05-24T13:22:42;8.82;;;4.88;;
13425;SDS011;6785;57.918;12.530;2023-05-24T13:25:10;4.85;;;4.35;;
13425;SDS011;6785;57.918;12.530;2023-05-24T13:27:38;5.07;;;4.55;;
13425;SDS011;6785;57.918;12.530;2023-05-24T13:30:05;7.00;;;4.05;;
13425;SDS011;6785;57.918;12.530;2023-05-24T13:32:32;4.97;;;4.10;;
13425;SDS011;6785;57.918;12.530;2023-05-24T13:34:59;4.53;;;4.10;;
13425;SDS011;6785;57.918;12.530;2023-05-24T13:37:26;4.65;;;4.18;;
13425;SDS011;6785;57.918;12.530;2023-05-24T13:39:53;4.60;;;3.75;;
13425;SDS011;6785;57.918;12.530;2023-05-24T13:42:21;5.97;;;3.80;;
13425;SDS011;6785;57.918;12.530;2023-05-24T13:44:48;6.72;;;3.67;;
13425;SDS011;6785;57.918;12.530;2023-05-24T13:47:14;5.32;;;3.90;;
13425;SDS011;6785;57.918;12.530;2023-05-24T13:49:43;5.72;;;3.50;;
13425;SDS011;6785;57.918;12.530;2023-05-24T13:52:10;6.88;;;3.97;;
13425;SDS011;6785;57.918;12.530;2023-05-24T13:54:37;5.40;;;3.65;;
13425;SDS011;6785;57.918;12.530;2023-05-24T13:57:04;4.32;;;3.83;;
13425;SDS011;6785;57.918;12.530;2023-05-24T13:59:32;4.93;;;3.85;;
13425;SDS011;6785;57.918;12.530;2023-05-24T14:01:59;5.03;;;3.60;;
13425;SDS011;6785;57.918;12.530;2023-05-24T14:04:25;7.35;;;3.72;;
13425;SDS011;6785;57.918;12.530;2023-05-24T14:06:54;4.13;;;3.60;;
13425;SDS011;6785;57.918;12.530;2023-05-24T14:09:21;4.22;;;3.63;;
13425;SDS011;6785;57.918;12.530;2023-05-24T14:11:50;3.87;;;3.13;;
13425;SDS011;6785;57.918;12.530;2023-05-24T14:14:17;4.13;;;3.40;;
13425;SDS011;6785;57.918;12.530;2023-05-24T14:16:45;4.10;;;3.20;;
13425;SDS011;6785;57.918;12.530;2023-05-24T14:19:15;7.20;;;3.17;;
13425;SDS011;6785;57.918;12.530;2023-05-24T14:21:43;3.83;;;3.37;;
13425;SDS011;6785;57.918;12.530;2023-05-24T14:24:10;5.57;;;3.30;;
13425;SDS011;6785;57.918;12.530;2023-05-24T14:26:37;5.53;;;3.30;;
13425;SDS011;6785;57.918;12.530;2023-05-24T14:29:05;7.40;;;3.47;;
13425;SDS011;6785;57.918;12.530;2023-05-24T14:31:32;8.70;;;3.37;;
13425;SDS011;6785;57.918;12.530;2023-05-24T14:34:06;4.97;;;3.53;;
13425;SDS011;6785;57.918;12.530;2023-05-24T14:36:35;4.57;;;3.00;;
13425;SDS011;6785;57.918;12.530;2023-05-24T14:39:02;4.83;;;3.47;;
13425;SDS011;6785;57.918;12.530;2023-05-24T14:41:30;6.47;;;3.40;;
13425;SDS011;6785;57.918;12.530;2023-05-24T14:43:57;4.03;;;3.20;;
13425;SDS011;6785;57.918;12.530;2023-05-24T14:46:24;3.30;;;3.00;;